Big Bear Station Historical Data
Daily Summary for November 25, 2017 Units:  English    Metric   Both
Next Day »
Daily Weekly Monthly Yearly Custom
  High: Low: Average:
Temperature: 69.3 °F 36.0 °F 47.8 °F
Dew Point: 37.4 °F 21.1 °F 30.1 °F
Humidity: 87% 21% 56%
Wind Speed: 6.8mph 0.0mph 0.8mph
Wind Gust: -999.0mph - -
Wind- - West
Pressure: 30.35 in 30.27 in -
Precipitation: 0.00 in    
Historical Graphs
 
 
Tabular Data for November 25, 2017
Time Temperature Dew Point Pressure Wind Wind Speed Wind Gust Humidity Rainfall Rate (Hourly)
00:14 40.3 °F 30.9 °F 30.27 in Calm   -999.0 mph 69% 0 in
00:29 40.8 °F 31.1 °F 30.27 in Calm   -999.0 mph 68% 0 in
00:45 40.5 °F 32.5 °F 30.27 in South 2.2 mph -999.0 mph 73% 0 in
01:00 39.9 °F 31.3 °F 30.27 in Calm   -999.0 mph 71% 0 in
01:15 39.4 °F 31.5 °F 30.27 in Calm   -999.0 mph 73% 0 in
01:30 39.0 °F 31.4 °F 30.27 in Calm   -999.0 mph 74% 0 in
01:45 39.4 °F 31.1 °F 30.27 in Calm   -999.0 mph 72% 0 in
02:01 38.8 °F 30.9 °F 30.27 in Calm   -999.0 mph 73% 0 in
02:16 38.7 °F 30.5 °F 30.27 in Calm   -999.0 mph 72% 0 in
02:31 39.0 °F 30.0 °F 30.27 in Calm   -999.0 mph 70% 0 in
02:46 39.0 °F 29.3 °F 30.27 in Calm   -999.0 mph 68% 0 in
03:01 38.8 °F 29.9 °F 30.27 in Calm   -999.0 mph 70% 0 in
03:17 38.1 °F 30.5 °F 30.27 in Calm   -999.0 mph 74% 0 in
03:32 38.1 °F 30.9 °F 30.27 in Calm   -999.0 mph 75% 0 in
03:47 37.9 °F 31.3 °F 30.27 in Calm   -999.0 mph 77% 0 in
04:02 37.6 °F 31.4 °F 30.27 in Calm   -999.0 mph 78% 0 in
04:18 37.8 °F 32.2 °F 30.27 in Calm   -999.0 mph 80% 0 in
04:33 37.0 °F 31.4 °F 30.27 in Calm   -999.0 mph 80% 0 in
04:48 37.0 °F 31.7 °F 30.28 in Calm   -999.0 mph 81% 0 in
05:03 37.0 °F 32.6 °F 30.28 in Calm   -999.0 mph 84% 0 in
05:18 37.0 °F 32.6 °F 30.28 in Calm   -999.0 mph 84% 0 in
05:34 37.0 °F 32.3 °F 30.29 in Calm   -999.0 mph 83% 0 in
05:49 36.5 °F 31.8 °F 30.29 in Calm   -999.0 mph 83% 0 in
06:04 36.3 °F 31.3 °F 30.29 in Calm   -999.0 mph 82% 0 in
06:19 36.0 °F 31.3 °F 30.29 in Calm   -999.0 mph 83% 0 in
06:34 36.3 °F 31.9 °F 30.30 in Calm   -999.0 mph 84% 0 in
06:50 36.1 °F 32.3 °F 30.30 in Calm   -999.0 mph 86% 0 in
07:05 36.3 °F 32.8 °F 30.30 in Calm   -999.0 mph 87% 0 in
07:20 36.5 °F 32.7 °F 30.31 in Calm   -999.0 mph 86% 0 in
07:35 36.9 °F 33.4 °F 30.31 in Calm   -999.0 mph 87% 0 in
07:50 37.4 °F 33.9 °F 30.32 in Calm   -999.0 mph 87% 0 in
08:06 37.0 °F 33.5 °F 30.32 in Calm   -999.0 mph 87% 0 in
08:21 38.3 °F 34.8 °F 30.32 in Calm   -999.0 mph 87% 0 in
08:36 38.8 °F 35.3 °F 30.32 in Calm   -999.0 mph 87% 0 in
08:51 40.3 °F 36.7 °F 30.32 in Calm   -999.0 mph 87% 0 in
09:06 41.9 °F 37.4 °F 30.32 in Calm   -999.0 mph 84% 0 in
09:22 48.2 °F 35.4 °F 30.33 in Calm   -999.0 mph 61% 0 in
09:37 55.0 °F 33.5 °F 30.33 in West 2.7 mph -999.0 mph 44% 0 in
09:52 60.6 °F 34.2 °F 30.33 in NW 1.7 mph -999.0 mph 37% 0 in
10:08 60.4 °F 34.0 °F 30.33 in NNW 1.7 mph -999.0 mph 37% 0 in
10:23 61.9 °F 33.9 °F 30.33 in Calm   -999.0 mph 35% 0 in
10:38 63.0 °F 34.9 °F 30.33 in SSE 2.7 mph -999.0 mph 35% 0 in
10:53 63.7 °F 35.5 °F 30.33 in WNW 2.7 mph -999.0 mph 35% 0 in
11:08 64.6 °F 34.8 °F 30.32 in West 1.7 mph -999.0 mph 33% 0 in
11:24 65.1 °F 32.9 °F 30.32 in NNW 6.8 mph -999.0 mph 30% 0 in
11:39 66.4 °F 31.4 °F 30.32 in West 2.7 mph -999.0 mph 27% 0 in
11:54 68.7 °F 28.3 °F 30.31 in Calm   -999.0 mph 22% 0 in
12:10 68.0 °F 28.8 °F 30.31 in North 2.7 mph -999.0 mph 23% 0 in
12:25 68.2 °F 31.0 °F 30.30 in NW 3.2 mph -999.0 mph 25% 0 in
12:40 69.3 °F 30.9 °F 30.30 in WNW 3.7 mph -999.0 mph 24% 0 in
12:55 68.0 °F 29.9 °F 30.30 in WNW 2.7 mph -999.0 mph 24% 0 in
13:10 67.3 °F 29.3 °F 30.30 in ESE 2.2 mph -999.0 mph 24% 0 in
13:26 66.9 °F 25.7 °F 30.30 in NNE 4.7 mph -999.0 mph 21% 0 in
13:41 66.6 °F 28.7 °F 30.30 in North 2.7 mph -999.0 mph 24% 0 in
13:56 65.8 °F 29.0 °F 30.29 in WNW 2.2 mph -999.0 mph 25% 0 in
14:12 65.3 °F 31.3 °F 30.30 in West 2.7 mph -999.0 mph 28% 0 in
14:27 64.9 °F 31.9 °F 30.30 in WNW 2.7 mph -999.0 mph 29% 0 in
14:42 64.2 °F 32.1 °F 30.29 in NW 3.2 mph -999.0 mph 30% 0 in
14:57 63.7 °F 30.8 °F 30.30 in WNW 2.7 mph -999.0 mph 29% 0 in
15:12 63.1 °F 32.0 °F 30.29 in NNW 3.2 mph -999.0 mph 31% 0 in
15:28 62.6 °F 30.7 °F 30.30 in West 1.7 mph -999.0 mph 30% 0 in
15:59 60.8 °F 31.5 °F 30.30 in NNW 2.7 mph -999.0 mph 33% 0 in
16:14 60.1 °F 30.9 °F 30.31 in Calm   -999.0 mph 33% 0 in
16:29 58.6 °F 31.0 °F 30.31 in Calm   -999.0 mph 35% 0 in
16:45 57.2 °F 30.5 °F 30.31 in South 1.7 mph -999.0 mph 36% 0 in
17:00 55.9 °F 29.3 °F 30.31 in South 2.2 mph -999.0 mph 36% 0 in
17:15 54.9 °F 28.4 °F 30.31 in South 2.7 mph -999.0 mph 36% 0 in
17:30 53.4 °F 27.1 °F 30.32 in Calm   -999.0 mph 36% 0 in
17:45 51.8 °F 24.3 °F 30.32 in Calm   -999.0 mph 34% 0 in
18:01 50.2 °F 22.9 °F 30.32 in Calm   -999.0 mph 34% 0 in
18:16 49.1 °F 23.9 °F 30.33 in Calm   -999.0 mph 37% 0 in
18:31 47.8 °F 24.0 °F 30.33 in Calm   -999.0 mph 39% 0 in
18:46 46.6 °F 22.9 °F 30.33 in Calm   -999.0 mph 39% 0 in
19:02 45.9 °F 21.1 °F 30.34 in Calm   -999.0 mph 37% 0 in
19:17 45.1 °F 22.8 °F 30.34 in Calm   -999.0 mph 41% 0 in
19:32 44.8 °F 27.3 °F 30.34 in Calm   -999.0 mph 50% 0 in
19:47 43.7 °F 24.3 °F 30.34 in Calm   -999.0 mph 46% 0 in
20:02 43.0 °F 27.5 °F 30.35 in Calm   -999.0 mph 54% 0 in
20:18 42.6 °F 28.4 °F 30.35 in Calm   -999.0 mph 57% 0 in
20:33 42.4 °F 27.4 °F 30.35 in Calm   -999.0 mph 55% 0 in
20:48 41.9 °F 27.3 °F 30.35 in Calm   -999.0 mph 56% 0 in
21:03 41.7 °F 25.8 °F 30.35 in Calm   -999.0 mph 53% 0 in
21:18 40.8 °F 25.0 °F 30.35 in Calm   -999.0 mph 53% 0 in
21:34 40.5 °F 24.7 °F 30.35 in Calm   -999.0 mph 53% 0 in
21:49 40.5 °F 25.6 °F 30.35 in Calm   -999.0 mph 55% 0 in
22:04 40.1 °F 26.5 °F 30.35 in Calm   -999.0 mph 58% 0 in
22:19 39.6 °F 26.9 °F 30.35 in Calm   -999.0 mph 60% 0 in
22:34 39.2 °F 26.9 °F 30.35 in Calm   -999.0 mph 61% 0 in
22:50 38.7 °F 26.0 °F 30.35 in Calm   -999.0 mph 60% 0 in
23:05 38.3 °F 26.0 °F 30.35 in Calm   -999.0 mph 61% 0 in
23:20 38.1 °F 28.1 °F 30.35 in Calm   -999.0 mph 67% 0 in
23:35 37.8 °F 29.9 °F 30.35 in Calm   -999.0 mph 73% 0 in
23:50 37.2 °F 30.7 °F 30.35 in Calm   -999.0 mph 77% 0 in
Big Bear CA Weather